Time;durP1;ratioP1;P1;durP2;ratioP2;P2;SDS_P1;SDS_P2;PMS_P1;PMS_P2;Temp;Humidity;BMP_temperature;BMP_pressure;BME280_temperature;BME280_humidity;BME280_pressure;Samples;Min_cycle;Max_cycle;Signal;HPM_P1;HPM_P2
2022/11/23 00:01:24;;;;;;;13.07;10.33;;;0.80;99.90;;;;;;5007495;28;20203;-80
2022/11/23 00:03:57;;;;;;;13.97;9.90;;;0.80;1.00;;;;;;5007092;28;20326;-79
2022/11/23 00:06:24;;;;;;;16.03;10.30;;;0.70;1.00;;;;;;5003549;28;20207;-82
2022/11/23 00:08:50;;;;;;;15.53;9.47;;;0.70;1.00;;;;;;5004602;28;20206;-79
2022/11/23 00:11:17;;;;;;;23.47;16.93;;;0.70;99.90;;;;;;5006470;28;20740;-79
2022/11/23 00:13:44;;;;;;;15.07;9.33;;;0.90;99.90;;;;;;5007985;28;21098;-81
2022/11/23 00:16:25;;;;;;;15.73;8.83;;;0.90;99.90;;;;;;5006322;28;20215;-78
2022/11/23 00:18:53;;;;;;;15.37;8.77;;;1.00;99.90;;;;;;5005677;28;20684;-78
2022/11/23 00:21:20;;;;;;;13.13;8.23;;;0.80;99.90;;;;;;5007325;28;20194;-77
2022/11/23 00:23:46;;;;;;;13.20;9.10;;;0.70;1.00;;;;;;5005979;28;20203;-79
2022/11/23 00:26:12;;;;;;;17.27;9.47;;;0.80;1.00;;;;;;5021303;28;20285;-78
2022/11/23 00:28:38;;;;;;;12.37;7.87;;;0.70;1.00;;;;;;5005261;28;20188;-81
2022/11/23 00:31:05;;;;;;;15.33;8.20;;;0.70;1.00;;;;;;5006042;28;20542;-81
2022/11/23 00:33:31;;;;;;;14.83;9.97;;;0.50;1.00;;;;;;5006166;28;20187;-79
2022/11/23 00:36:05;;;;;;;12.80;8.60;;;0.60;45.30;;;;;;5005645;28;20213;-78
2022/11/23 00:38:31;;;;;;;15.53;10.23;;;0.60;99.90;;;;;;5007294;28;20195;-82
2022/11/23 00:40:58;;;;;;;14.23;8.70;;;0.70;1.00;;;;;;5005748;28;20191;-79
2022/11/23 00:43:24;;;;;;;12.33;8.27;;;0.70;99.90;;;;;;5006057;28;20211;-78
2022/11/23 00:45:49;;;;;;;15.60;9.93;;;0.60;99.90;;;;;;5005554;28;20750;-78
2022/11/23 00:48:15;;;;;;;14.43;9.43;;;0.60;99.90;;;;;;5007502;28;20184;-78
2022/11/23 00:50:41;;;;;;;13.90;8.10;;;0.50;99.90;;;;;;5004959;28;20183;-79
2022/11/23 00:53:06;;;;;;;15.40;7.80;;;0.50;99.90;;;;;;5007634;28;20183;-81
2022/11/23 00:55:32;;;;;;;14.80;7.67;;;0.40;99.90;;;;;;5004710;28;20235;-77
2022/11/23 00:57:57;;;;;;;12.60;7.20;;;0.30;1.00;;;;;;5008066;28;20190;-81
2022/11/23 01:00:23;;;;;;;12.50;8.17;;;0.30;1.00;;;;;;5007097;28;21078;-77
2022/11/23 01:02:48;;;;;;;15.70;9.00;;;0.40;1.00;;;;;;5008365;28;20183;-80
2022/11/23 01:05:14;;;;;;;17.73;11.20;;;0.40;92.90;;;;;;5007229;28;20221;-78
2022/11/23 01:07:40;;;;;;;17.33;10.07;;;0.40;99.90;;;;;;5023066;28;20199;-78
2022/11/23 01:10:07;;;;;;;16.70;9.20;;;0.40;99.90;;;;;;5007789;28;20183;-79
2022/11/23 01:12:32;;;;;;;16.80;11.77;;;0.30;99.90;;;;;;5007084;28;20241;-76
2022/11/23 01:14:58;;;;;;;12.83;8.90;;;0.30;99.90;;;;;;5008861;28;20219;-80
2022/11/23 01:17:23;;;;;;;14.63;9.57;;;0.30;99.90;;;;;;5011468;28;20218;-80
2022/11/23 01:19:49;;;;;;;12.30;8.00;;;0.50;1.00;;;;;;5006965;28;20611;-79
2022/11/23 01:22:15;;;;;;;12.90;9.37;;;0.50;1.00;;;;;;5007210;28;20199;-78
2022/11/23 01:24:40;;;;;;;16.80;9.00;;;0.50;1.00;;;;;;5005733;28;20238;-79
2022/11/23 01:27:06;;;;;;;18.90;12.30;;;0.50;1.00;;;;;;5007027;28;20191;-77
2022/11/23 01:29:31;;;;;;;13.87;8.50;;;0.60;1.00;;;;;;5007526;28;20241;-80
2022/11/23 01:31:57;;;;;;;13.80;9.23;;;0.80;1.00;;;;;;5021692;28;20650;-78
2022/11/23 01:34:22;;;;;;;18.60;9.90;;;0.50;1.00;;;;;;5007204;28;20568;-77
2022/11/23 01:36:48;;;;;;;19.83;10.57;;;0.60;1.00;;;;;;5004723;28;20215;-80
2022/11/23 01:39:13;;;;;;;16.27;9.20;;;0.70;1.00;;;;;;5006834;28;20184;-78
2022/11/23 01:41:41;;;;;;;16.70;8.30;;;0.60;1.00;;;;;;5005048;28;20192;-76
2022/11/23 01:44:28;;;;;;;21.90;12.53;;;0.60;99.90;;;;;;5007264;28;20299;-79
2022/11/23 01:46:57;;;;;;;14.93;8.30;;;0.80;1.00;;;;;;5006709;28;20535;-79
2022/11/23 01:49:26;;;;;;;18.73;11.03;;;0.80;99.90;;;;;;5007354;28;20188;-79
2022/11/23 01:51:55;;;;;;;17.33;9.67;;;1.10;1.00;;;;;;5007363;28;20249;-80
2022/11/23 01:54:27;;;;;;;22.23;12.17;;;1.40;1.00;;;;;;5006090;28;20183;-79
2022/11/23 01:56:57;;;;;;;17.17;8.87;;;1.40;99.90;;;;;;5005443;28;20788;-78
2022/11/23 01:59:25;;;;;;;68.50;40.60;;;1.50;1.00;;;;;;5005156;28;20183;-80
2022/11/23 02:01:51;;;;;;;23.93;15.97;;;1.50;1.00;;;;;;5006619;28;20187;-79
2022/11/23 02:04:28;;;;;;;31.43;26.93;;;1.40;1.00;;;;;;5006384;28;20207;-80
2022/11/23 02:06:54;;;;;;;22.80;18.27;;;1.50;99.90;;;;;;5010750;28;20288;-79
2022/11/23 02:09:21;;;;;;;18.03;12.97;;;1.50;1.00;;;;;;5010917;28;20187;-79
2022/11/23 02:11:47;;;;;;;16.70;9.20;;;1.50;99.90;;;;;;5010979;28;20283;-81
2022/11/23 02:14:13;;;;;;;14.60;8.83;;;1.50;99.90;;;;;;5010909;28;20266;-78
2022/11/23 02:16:39;;;;;;;15.93;12.85;;;1.50;44.70;;;;;;5009922;28;20650;-81
2022/11/23 02:19:19;;;;;;;15.80;9.00;;;1.60;43.50;;;;;;5010917;28;20203;-80
2022/11/23 02:21:45;;;;;;;12.07;8.93;;;1.50;1.00;;;;;;5011166;28;20184;-79
2022/11/23 02:24:30;;;;;;;18.80;12.27;;;1.50;1.00;;;;;;5010590;28;20213;-79
2022/11/23 02:26:56;;;;;;;12.90;8.03;;;1.40;1.00;;;;;;5009701;28;20273;-75
2022/11/23 02:29:26;;;;;;;11.60;7.80;;;1.20;1.00;;;;;;5005758;28;20736;-76
2022/11/23 02:31:53;;;;;;;12.20;7.67;;;1.20;99.90;;;;;;5012513;28;20180;-80
2022/11/23 02:34:19;;;;;;;12.47;7.50;;;1.20;99.90;;;;;;5012762;28;20190;-80
2022/11/23 02:36:50;;;;;;;12.17;6.50;;;1.20;99.90;;;;;;5010955;28;20211;-80
2022/11/23 02:39:35;;;;;;;10.87;6.60;;;1.10;99.90;;;;;;5011439;28;20187;-82
2022/11/23 02:42:01;;;;;;;8.93;6.60;;;1.20;99.90;;;;;;5011479;28;20194;-79
2022/11/23 02:44:38;;;;;;;9.33;5.80;;;1.00;99.90;;;;;;5010592;28;20219;-79
2022/11/23 02:47:05;;;;;;;12.80;6.47;;;1.10;1.00;;;;;;5025499;28;20183;-82
2022/11/23 02:49:30;;;;;;;18.43;6.80;;;1.20;1.00;;;;;;5010127;28;20262;-80
2022/11/23 02:51:56;;;;;;;15.67;6.33;;;1.20;1.00;;;;;;5010243;28;20322;-78
2022/11/23 02:54:22;;;;;;;12.27;6.10;;;1.30;1.00;;;;;;5010073;28;20211;-79
2022/11/23 02:56:47;;;;;;;7.57;5.87;;;1.40;1.00;;;;;;5009016;28;20218;-80
2022/11/23 02:59:13;;;;;;;12.67;5.83;;;1.40;1.00;;;;;;5009139;28;20188;-78
2022/11/23 03:01:39;;;;;;;8.93;6.23;;;1.20;99.90;;;;;;5008145;28;20670;-79
2022/11/23 03:04:05;;;;;;;8.80;5.60;;;1.00;99.90;;;;;;5010472;28;20211;-81
2022/11/23 03:06:31;;;;;;;9.33;5.80;;;0.90;99.90;;;;;;5009450;28;21257;-80
2022/11/23 03:08:56;;;;;;;8.57;6.27;;;0.90;1.00;;;;;;5010585;28;20191;-81
2022/11/23 03:11:22;;;;;;;9.70;5.70;;;1.10;1.00;;;;;;5008870;28;20191;-79
2022/11/23 03:13:47;;;;;;;7.47;5.57;;;1.00;1.00;;;;;;5010439;28;20198;-79
2022/11/23 03:16:13;;;;;;;10.60;5.33;;;0.90;1.00;;;;;;5006646;28;20572;-80
2022/11/23 03:18:39;;;;;;;9.13;5.17;;;0.80;1.00;;;;;;5009967;28;20192;-82
2022/11/23 03:21:09;;;;;;;9.43;5.57;;;0.60;1.00;;;;;;5010326;28;20187;-80
2022/11/23 03:23:35;;;;;;;8.23;5.60;;;0.60;56.10;;;;;;5025233;28;20179;-78
2022/11/23 03:26:01;;;;;;;8.83;5.67;;;0.60;99.90;;;;;;5008831;28;20601;-78
2022/11/23 03:28:27;;;;;;;8.63;5.17;;;0.60;99.90;;;;;;5009119;28;20670;-79
2022/11/23 03:30:53;;;;;;;10.27;5.50;;;0.60;99.90;;;;;;5009133;28;20187;-80
2022/11/23 03:33:19;;;;;;;9.10;5.77;;;0.60;1.00;;;;;;5008789;28;20202;-79
2022/11/23 03:35:45;;;;;;;10.10;5.50;;;0.50;1.00;;;;;;5009642;28;20211;-78
2022/11/23 03:38:11;;;;;;;10.67;5.83;;;0.50;1.00;;;;;;5010288;28;20194;-81
2022/11/23 03:40:37;;;;;;;11.87;5.53;;;0.40;99.90;;;;;;5009912;28;20278;-80
2022/11/23 03:43:03;;;;;;;10.47;5.87;;;0.50;1.00;;;;;;5010136;28;20326;-80
2022/11/23 03:45:28;;;;;;;9.00;5.03;;;0.50;1.00;;;;;;5009468;28;20591;-80
2022/11/23 03:47:54;;;;;;;9.77;5.60;;;0.50;1.00;;;;;;5009909;28;20187;-79
2022/11/23 03:50:19;;;;;;;11.33;6.23;;;0.40;99.90;;;;;;5009779;28;20663;-78
2022/11/23 03:52:47;;;;;;;10.00;5.47;;;0.30;1.00;;;;;;5008391;28;20230;-78
2022/11/23 03:55:13;;;;;;;11.57;5.83;;;0.30;1.00;;;;;;5007500;28;20207;-79
2022/11/23 03:57:39;;;;;;;10.03;5.77;;;0.50;96.80;;;;;;5009796;28;20234;-80
2022/11/23 04:00:05;;;;;;;8.10;5.80;;;0.80;1.00;;;;;;5010459;28;20274;-80
2022/11/23 04:02:31;;;;;;;9.00;5.87;;;1.10;1.00;;;;;;5011621;28;20187;-81
2022/11/23 04:04:56;;;;;;;13.63;6.17;;;1.30;1.00;;;;;;5007809;28;20656;-80
2022/11/23 04:07:22;;;;;;;8.10;5.73;;;1.40;1.00;;;;;;5009074;28;20194;-80
2022/11/23 04:09:47;;;;;;;13.23;6.87;;;1.60;1.00;;;;;;5011630;28;20234;-81
2022/11/23 04:12:13;;;;;;;8.20;5.97;;;1.70;1.00;;;;;;5009166;28;20211;-79
2022/11/23 04:14:39;;;;;;;11.03;6.93;;;1.90;99.90;;;;;;5009207;28;20281;-82
2022/11/23 04:17:04;;;;;;;9.30;5.70;;;2.00;1.00;;;;;;5010031;28;20242;-81
2022/11/23 04:19:30;;;;;;;12.13;5.73;;;2.00;99.90;;;;;;5008335;28;20211;-79
2022/11/23 04:21:56;;;;;;;12.10;7.23;;;2.00;1.00;;;;;;5009604;28;20572;-79
2022/11/23 04:24:21;;;;;;;11.13;6.17;;;2.00;1.00;;;;;;5010725;28;20221;-81
2022/11/23 04:26:47;;;;;;;27.17;16.73;;;2.20;99.90;;;;;;5007993;28;20939;-79
2022/11/23 04:29:13;;;;;;;30.37;17.40;;;2.10;99.90;;;;;;5009886;28;20637;-80
2022/11/23 04:31:38;;;;;;;30.47;18.57;;;2.10;99.90;;;;;;5009348;28;20187;-79
2022/11/23 04:34:04;;;;;;;35.97;22.93;;;2.10;99.90;;;;;;5008739;28;20266;-80
2022/11/23 04:36:30;;;;;;;28.30;17.13;;;2.30;99.90;;;;;;5009688;28;20647;-79
2022/11/23 04:38:55;;;;;;;18.17;10.27;;;2.50;26.20;;;;;;5011189;28;20266;-79
2022/11/23 04:41:22;;;;;;;20.20;11.93;;;2.70;99.90;;;;;;5008655;28;20185;-80
2022/11/23 04:43:48;;;;;;;22.03;15.60;;;2.80;1.00;;;;;;5008111;28;20250;-79
2022/11/23 04:46:14;;;;;;;20.37;12.73;;;2.90;1.00;;;;;;5008507;28;20801;-79
2022/11/23 04:48:40;;;;;;;17.23;12.07;;;3.00;99.90;;;;;;5007511;28;20207;-79
2022/11/23 04:51:06;;;;;;;27.00;17.07;;;3.00;99.90;;;;;;5007571;28;20219;-78
2022/11/23 04:53:32;;;;;;;13.50;8.80;;;3.10;99.90;;;;;;5008210;28;20191;-79
2022/11/23 04:55:57;;;;;;;13.77;8.83;;;3.10;99.90;;;;;;5009586;28;20258;-79
2022/11/23 04:58:23;;;;;;;12.97;8.30;;;3.10;99.90;;;;;;5009942;28;20179;-79
2022/11/23 05:00:49;;;;;;;12.90;8.73;;;3.20;99.90;;;;;;5008338;28;20401;-80
2022/11/23 05:03:14;;;;;;;21.30;11.53;;;3.30;99.90;;;;;;5007206;28;20196;-80
2022/11/23 05:05:40;;;;;;;14.73;8.47;;;3.40;99.90;;;;;;5006012;28;20222;-78
2022/11/23 05:08:07;;;;;;;13.93;8.23;;;3.40;99.90;;;;;;5005919;28;20195;-78
2022/11/23 05:10:32;;;;;;;14.37;8.17;;;3.40;99.90;;;;;;5005737;28;20183;-78
2022/11/23 05:12:58;;;;;;;15.00;9.30;;;3.50;99.90;;;;;;5006583;28;20589;-80
2022/11/23 05:15:24;;;;;;;11.37;6.60;;;3.50;99.90;;;;;;5006154;28;20219;-78
2022/11/23 05:17:49;;;;;;;10.33;6.20;;;3.30;99.90;;;;;;5007329;28;20202;-81
2022/11/23 05:20:15;;;;;;;6.00;4.80;;;3.20;99.90;;;;;;5007748;28;20179;-79
2022/11/23 05:22:41;;;;;;;7.97;5.13;;;2.90;99.90;;;;;;5005931;28;20191;-80
2022/11/23 05:25:07;;;;;;;8.73;5.43;;;2.70;99.90;;;;;;5007149;28;20229;-80
2022/11/23 05:27:33;;;;;;;8.23;5.10;;;2.60;99.90;;;;;;5008477;28;20195;-78
2022/11/23 05:29:58;;;;;;;10.20;5.20;;;2.60;99.90;;;;;;5003654;28;20184;-78
2022/11/23 05:32:24;;;;;;;9.77;6.00;;;2.60;99.90;;;;;;5004714;28;20180;-78
2022/11/23 05:34:55;;;;;;;7.53;5.10;;;2.60;1.00;;;;;;5009225;28;20203;-79
2022/11/23 05:37:21;;;;;;;11.53;5.80;;;2.80;1.00;;;;;;5007299;28;20271;-79
2022/11/23 05:39:46;;;;;;;8.83;5.60;;;3.00;1.00;;;;;;5007701;28;20258;-81
2022/11/23 05:42:12;;;;;;;7.60;4.90;;;3.10;99.90;;;;;;5007729;28;20787;-81
2022/11/23 05:44:38;;;;;;;9.97;5.13;;;3.00;99.90;;;;;;5008401;28;20203;-81
2022/11/23 05:47:03;;;;;;;7.40;4.97;;;2.90;99.90;;;;;;5005649;28;20188;-80
2022/11/23 05:49:29;;;;;;;7.77;5.20;;;2.80;99.90;;;;;;5022384;28;20245;-80
2022/11/23 05:51:54;;;;;;;5.90;4.73;;;2.70;99.90;;;;;;5008567;28;20270;-81
2022/11/23 05:54:20;;;;;;;8.33;4.80;;;2.80;99.90;;;;;;5007723;28;20191;-79
2022/11/23 05:56:46;;;;;;;9.67;5.40;;;2.90;1.00;;;;;;5004191;28;20207;-78
2022/11/23 05:59:11;;;;;;;9.63;5.20;;;3.00;1.00;;;;;;5005469;28;20704;-80
2022/11/23 06:01:37;;;;;;;8.57;5.00;;;3.20;99.90;;;;;;5006686;28;20275;-80
2022/11/23 06:04:05;;;;;;;8.80;4.90;;;3.40;99.90;;;;;;5006584;28;20558;-78
2022/11/23 06:06:30;;;;;;;9.27;5.00;;;3.40;99.90;;;;;;5005951;28;20226;-77
2022/11/23 06:08:56;;;;;;;10.43;5.13;;;3.40;99.90;;;;;;5006752;28;20650;-78
2022/11/23 06:11:21;;;;;;;10.47;5.40;;;3.50;99.90;;;;;;5005932;28;20205;-80
2022/11/23 06:13:48;;;;;;;9.90;5.63;;;3.50;99.90;;;;;;5006704;28;20175;-81
2022/11/23 06:16:13;;;;;;;10.13;6.10;;;3.50;99.90;;;;;;5006036;28;20250;-78
2022/11/23 06:18:39;;;;;;;10.90;6.20;;;3.50;99.90;;;;;;5006526;28;20211;-81
2022/11/23 06:21:04;;;;;;;9.00;5.30;;;3.50;99.90;;;;;;5007141;28;20625;-79
2022/11/23 06:23:30;;;;;;;10.63;6.20;;;3.60;99.90;;;;;;5007114;28;20199;-80
2022/11/23 06:25:59;;;;;;;8.30;5.03;;;3.60;99.90;;;;;;5006311;28;20211;-76
2022/11/23 06:28:26;;;;;;;7.30;4.73;;;3.60;99.90;;;;;;5007292;28;20183;-79
2022/11/23 06:30:51;;;;;;;8.67;4.70;;;3.70;99.90;;;;;;5005681;28;20179;-78
2022/11/23 06:33:17;;;;;;;7.90;4.80;;;3.80;99.90;;;;;;5006479;28;20230;-79
2022/11/23 06:35:51;;;;;;;5.53;4.47;;;3.80;99.90;;;;;;5006767;28;20207;-79
2022/11/23 06:38:17;;;;;;;7.07;4.33;;;3.50;99.90;;;;;;5007190;28;20194;-81
2022/11/23 06:40:42;;;;;;;9.20;4.93;;;3.40;99.90;;;;;;5007200;28;20218;-79
2022/11/23 06:43:08;;;;;;;8.63;5.10;;;3.50;99.90;;;;;;4998668;28;20184;-79
2022/11/23 06:45:34;;;;;;;10.53;5.37;;;3.40;99.90;;;;;;5004654;28;20599;-81
2022/11/23 06:47:59;;;;;;;11.03;7.90;;;3.60;99.90;;;;;;5004517;28;20342;-80
2022/11/23 06:50:25;;;;;;;7.87;4.73;;;3.50;99.90;;;;;;5007255;28;20175;-80
2022/11/23 06:52:55;;;;;;;8.07;5.10;;;3.60;99.90;;;;;;5011087;28;20252;-80
2022/11/23 06:55:21;;;;;;;7.70;4.60;;;3.70;99.90;;;;;;5024932;28;20684;-79
2022/11/23 06:57:47;;;;;;;7.13;5.70;;;3.70;99.90;;;;;;5009875;28;20187;-80
2022/11/23 07:00:13;;;;;;;9.87;5.53;;;3.70;99.90;;;;;;5012348;28;20779;-80
2022/11/23 07:02:39;;;;;;;6.83;4.53;;;3.70;99.90;;;;;;5011694;28;20183;-80
2022/11/23 07:05:05;;;;;;;7.07;4.60;;;3.50;99.90;;;;;;5008796;28;20273;-80
2022/11/23 07:07:31;;;;;;;8.60;6.00;;;3.40;99.90;;;;;;5008270;28;20235;-80
2022/11/23 07:09:57;;;;;;;6.97;5.53;;;3.40;99.90;;;;;;5010422;28;20180;-80
2022/11/23 07:12:23;;;;;;;9.37;6.30;;;3.20;99.90;;;;;;5010553;28;20175;-80
2022/11/23 07:14:48;;;;;;;7.37;5.23;;;3.20;99.90;;;;;;5009819;28;20238;-80
2022/11/23 07:17:14;;;;;;;6.00;4.40;;;3.20;99.90;;;;;;5008561;28;20441;-79
2022/11/23 07:19:39;;;;;;;8.90;5.93;;;3.20;99.90;;;;;;5010738;28;20322;-79
2022/11/23 07:22:05;;;;;;;5.63;4.20;;;3.20;99.90;;;;;;5010175;28;20183;-80
2022/11/23 07:24:30;;;;;;;7.63;5.30;;;3.20;99.90;;;;;;5006294;28;20208;-81
2022/11/23 07:26:56;;;;;;;8.60;4.40;;;3.30;99.90;;;;;;5009248;28;20207;-78
2022/11/23 07:29:22;;;;;;;7.40;4.33;;;3.10;99.90;;;;;;5010951;28;20180;-80
2022/11/23 07:31:47;;;;;;;6.47;4.37;;;3.10;99.90;;;;;;5009784;28;20710;-80
2022/11/23 07:34:13;;;;;;;8.57;4.20;;;3.30;99.90;;;;;;5010769;28;20553;-80
2022/11/23 07:36:38;;;;;;;12.47;5.37;;;3.40;99.90;;;;;;5011313;28;20216;-77
2022/11/23 07:39:04;;;;;;;10.77;6.00;;;3.50;99.90;;;;;;5012201;28;20175;-79
2022/11/23 07:41:30;;;;;;;13.07;5.97;;;3.60;99.90;;;;;;5019219;28;20183;-80
2022/11/23 07:43:55;;;;;;;9.70;6.10;;;3.80;99.90;;;;;;5013630;28;20195;-82
2022/11/23 07:46:21;;;;;;;10.37;5.60;;;3.80;99.90;;;;;;5011506;28;20661;-82
2022/11/23 07:48:47;;;;;;;17.43;11.27;;;3.90;99.90;;;;;;5009674;28;20822;-81
2022/11/23 07:51:12;;;;;;;8.03;5.37;;;3.90;99.90;;;;;;5013563;28;20231;-80
2022/11/23 07:53:38;;;;;;;11.67;6.90;;;4.00;99.90;;;;;;5017857;28;20187;-80
2022/11/23 07:56:04;;;;;;;16.40;7.03;;;4.20;99.90;;;;;;5016101;28;20215;-79
2022/11/23 07:58:31;;;;;;;11.93;6.77;;;4.40;99.90;;;;;;5013625;28;20448;-82
2022/11/23 08:00:57;;;;;;;114.20;66.07;;;4.40;99.90;;;;;;5011995;28;20194;-81
2022/11/23 08:03:23;;;;;;;122.23;72.90;;;4.40;99.90;;;;;;5009589;28;20670;-80
2022/11/23 08:05:48;;;;;;;83.67;59.27;;;4.50;99.90;;;;;;5008697;28;20211;-82
2022/11/23 08:08:14;;;;;;;31.93;26.57;;;4.60;99.90;;;;;;5011432;28;20194;-80
2022/11/23 08:10:40;;;;;;;28.43;23.93;;;4.60;99.90;;;;;;5014184;28;20195;-82
2022/11/23 08:13:06;;;;;;;17.37;12.97;;;4.60;99.90;;;;;;5013862;28;20183;-81
2022/11/23 08:15:32;;;;;;;11.13;7.57;;;4.70;99.90;;;;;;5015544;28;20219;-79
2022/11/23 08:17:59;;;;;;;14.40;11.17;;;4.80;99.90;;;;;;5011533;28;20562;-79
2022/11/23 08:20:26;;;;;;;16.67;11.53;;;4.80;99.90;;;;;;5015321;28;20689;-82
2022/11/23 08:22:54;;;;;;;19.60;16.37;;;4.90;99.90;;;;;;5013997;28;20192;-81
2022/11/23 08:25:20;;;;;;;14.43;10.63;;;4.90;99.90;;;;;;5014332;28;20215;-79
2022/11/23 08:27:46;;;;;;;17.30;13.33;;;5.00;99.90;;;;;;5015705;28;20182;-80
2022/11/23 08:30:12;;;;;;;23.03;17.70;;;5.10;99.90;;;;;;5019407;28;20259;-79
2022/11/23 08:32:38;;;;;;;97.10;62.53;;;5.20;99.90;;;;;;5015587;28;20214;-79
2022/11/23 08:35:04;;;;;;;55.57;39.50;;;5.30;96.80;;;;;;5016564;28;20310;-79
2022/11/23 08:37:30;;;;;;;68.47;51.87;;;5.30;99.90;;;;;;5009980;28;20203;-79
2022/11/23 08:39:55;;;;;;;12.43;9.40;;;5.50;77.60;;;;;;5010827;28;20566;-79
2022/11/23 08:42:21;;;;;;;13.57;9.93;;;5.60;99.90;;;;;;5011320;28;20180;-79
2022/11/23 08:44:46;;;;;;;15.17;13.13;;;5.70;99.90;;;;;;5008160;28;20215;-79
2022/11/23 08:47:12;;;;;;;14.50;12.70;;;5.90;99.90;;;;;;5010054;28;20712;-79
2022/11/23 08:49:38;;;;;;;11.53;10.20;;;6.10;86.90;;;;;;5010218;28;20187;-79
2022/11/23 08:52:03;;;;;;;11.73;10.53;;;6.40;79.50;;;;;;5007651;28;20180;-79
2022/11/23 08:54:31;;;;;;;12.67;11.30;;;6.60;76.90;;;;;;5009190;28;20219;-81
2022/11/23 08:56:56;;;;;;;13.43;10.37;;;6.70;52.90;;;;;;5009332;28;20188;-79
2022/11/23 08:59:22;;;;;;;10.17;9.13;;;6.70;46.60;;;;;;5008228;28;20176;-79
2022/11/23 09:01:48;;;;;;;11.47;9.70;;;6.70;43.00;;;;;;5008604;28;20585;-79
2022/11/23 09:04:13;;;;;;;9.80;6.40;;;6.70;56.30;;;;;;5008383;28;20191;-79
2022/11/23 09:06:39;;;;;;;12.63;8.77;;;6.60;50.70;;;;;;5007634;28;20294;-76
2022/11/23 09:09:04;;;;;;;12.83;7.37;;;6.60;41.00;;;;;;5008147;28;20770;-77
2022/11/23 09:11:30;;;;;;;6.87;4.87;;;6.60;40.30;;;;;;5007482;28;20190;-79
2022/11/23 09:13:55;;;;;;;9.03;4.10;;;6.30;39.80;;;;;;5008418;28;20184;-78
2022/11/23 09:16:21;;;;;;;11.00;5.63;;;6.20;50.80;;;;;;5002137;28;20784;-79
2022/11/23 09:18:48;;;;;;;5.67;4.03;;;6.00;61.50;;;;;;5008577;28;20194;-78
2022/11/23 09:21:14;;;;;;;6.53;3.67;;;6.00;64.80;;;;;;5004131;28;20183;-80
2022/11/23 09:23:40;;;;;;;5.40;2.90;;;6.00;70.50;;;;;;5007302;28;20207;-78
2022/11/23 09:26:05;;;;;;;5.27;3.60;;;6.00;87.90;;;;;;5006043;28;20226;-79
2022/11/23 09:28:31;;;;;;;6.03;3.70;;;6.00;87.80;;;;;;5007353;28;20179;-79
2022/11/23 09:30:57;;;;;;;8.03;4.63;;;6.00;77.50;;;;;;5007241;28;20719;-79
2022/11/23 09:33:24;;;;;;;8.10;5.17;;;5.90;94.20;;;;;;5005733;28;20218;-78
2022/11/23 09:35:57;;;;;;;6.67;3.90;;;5.70;95.20;;;;;;5005823;28;20215;-79
2022/11/23 09:38:23;;;;;;;6.17;3.47;;;5.70;99.90;;;;;;5005318;28;20277;-79
2022/11/23 09:41:14;;;;;;;7.03;3.83;;;5.80;99.90;;;;;;5004976;28;20219;-79
2022/11/23 09:44:04;;;;;;;4.63;2.97;;;6.00;99.90;;;;;;5006468;28;20230;-79
2022/11/23 09:47:15;;;;;;;7.03;3.37;;;6.20;99.90;;;;;;5005217;28;20357;-81
2022/11/23 09:49:54;;;;;;;6.03;2.90;;;6.60;99.90;;;;;;5021230;28;20186;-79
2022/11/23 09:52:22;;;;;;;4.60;3.27;;;6.70;94.60;;;;;;5004932;28;20175;-82
2022/11/23 09:54:52;;;;;;;7.73;3.60;;;6.90;99.40;;;;;;5003241;28;20576;-80
2022/11/23 09:57:23;;;;;;;7.07;3.17;;;7.00;99.90;;;;;;5006582;28;20672;-81
2022/11/23 09:59:57;;;;;;;6.80;3.37;;;7.00;94.20;;;;;;5005984;28;20188;-81
2022/11/23 10:02:25;;;;;;;5.73;3.10;;;7.10;91.60;;;;;;5005152;28;20180;-79
2022/11/23 10:04:52;;;;;;;8.70;3.30;;;7.10;95.60;;;;;;5005027;28;20211;-80
2022/11/23 10:07:28;;;;;;;5.37;3.13;;;7.40;95.30;;;;;;5004110;28;20286;-77
2022/11/23 10:10:07;;;;;;;8.50;4.50;;;7.10;98.80;;;;;;5003834;28;20186;-80
2022/11/23 10:12:39;;;;;;;27.73;25.20;;;7.20;90.20;;;;;;5001796;28;20692;-80
2022/11/23 10:15:23;;;;;;;13.33;11.40;;;7.30;91.60;;;;;;5018741;28;20728;-78
2022/11/23 10:18:12;;;;;;;6.50;3.50;;;7.40;92.00;;;;;;5003798;28;20589;-81
2022/11/23 10:20:40;;;;;;;4.67;4.03;;;7.50;78.60;;;;;;5000657;28;20550;-80
2022/11/23 10:23:34;;;;;;;4.87;2.93;;;7.50;84.40;;;;;;4985453;28;20206;-78
2022/11/23 10:26:00;;;;;;;5.70;2.50;;;7.80;73.30;;;;;;5020488;28;20583;-79
2022/11/23 10:28:29;;;;;;;4.73;2.20;;;7.80;48.40;;;;;;5007989;28;20190;-76
2022/11/23 10:31:13;;;;;;;4.17;1.40;;;7.90;17.20;;;;;;5007799;28;20592;-77
2022/11/23 10:34:08;;;;;;;4.87;2.40;;;8.00;22.20;;;;;;5023047;28;20227;-78
2022/11/23 10:36:35;;;;;;;4.30;2.43;;;8.10;14.80;;;;;;5005800;28;20280;-77
2022/11/23 10:39:08;;;;;;;6.23;2.70;;;8.10;2.10;;;;;;5024280;28;20196;-76
2022/11/23 10:41:33;;;;;;;6.67;2.93;;;8.30;1.00;;;;;;5001270;28;20179;-78
2022/11/23 10:44:23;;;;;;;7.57;2.97;;;8.30;1.00;;;;;;5002935;28;20219;-77
2022/11/23 10:46:49;;;;;;;7.13;3.77;;;8.30;1.00;;;;;;5002158;28;20563;-77
2022/11/23 10:49:20;;;;;;;7.37;2.90;;;8.80;1.00;;;;;;5009812;28;20188;-78
2022/11/23 10:51:49;;;;;;;9.50;3.87;;;8.40;1.00;;;;;;5002298;28;20188;-76
2022/11/23 10:54:26;;;;;;;8.43;3.00;;;8.40;1.00;;;;;;5004882;28;20192;-78
2022/11/23 10:56:53;;;;;;;8.40;3.47;;;8.30;1.00;;;;;;5006952;28;20534;-78
2022/11/23 10:59:39;;;;;;;14.50;4.83;;;8.20;1.00;;;;;;5007062;28;20282;-77
2022/11/23 11:02:18;;;;;;;17.17;6.90;;;8.40;1.00;;;;;;5005906;28;20496;-78
2022/11/23 11:04:45;;;;;;;11.63;3.90;;;8.40;1.00;;;;;;5005112;28;20219;-79
2022/11/23 11:07:27;;;;;;;29.37;9.20;;;8.40;1.00;;;;;;5004015;28;20315;-78
2022/11/23 11:09:57;;;;;;;12.73;5.27;;;8.40;1.00;;;;;;5002119;28;20183;-76
2022/11/23 11:12:24;;;;;;;6.83;3.80;;;8.30;1.00;;;;;;5005294;28;20357;-76
2022/11/23 11:15:01;;;;;;;9.50;3.90;;;9.20;1.00;;;;;;5003194;28;20220;-79
2022/11/23 11:17:34;;;;;;;8.47;3.63;;;8.40;1.00;;;;;;5004318;28;20349;-78
2022/11/23 11:20:20;;;;;;;5.10;2.80;;;8.50;1.00;;;;;;5018961;28;20191;-78
2022/11/23 11:22:46;;;;;;;6.27;2.97;;;8.40;1.00;;;;;;5001511;28;20191;-75
2022/11/23 11:25:28;;;;;;;5.77;2.90;;;8.50;1.00;;;;;;5003298;28;20744;-79
2022/11/23 11:27:55;;;;;;;5.87;3.00;;;8.40;1.00;;;;;;5018509;28;20516;-78
2022/11/23 11:30:31;;;;;;;5.33;2.50;;;8.50;1.00;;;;;;5003185;28;20647;-80
2022/11/23 11:32:59;;;;;;;4.87;1.97;;;8.40;1.00;;;;;;5001528;28;20440;-80
2022/11/23 11:35:31;;;;;;;3.60;2.00;;;8.50;1.00;;;;;;5001116;28;20219;-78
2022/11/23 11:38:02;;;;;;;5.10;1.77;;;8.50;1.00;;;;;;5004337;28;21021;-78
2022/11/23 11:40:31;;;;;;;4.47;1.70;;;8.50;1.00;;;;;;5002972;28;20196;-81
2022/11/23 11:43:27;;;;;;;6.43;2.00;;;8.60;1.00;;;;;;5003789;28;20439;-78
2022/11/23 11:45:57;;;;;;;4.27;1.50;;;8.60;1.00;;;;;;4998532;28;20309;-79
2022/11/23 11:48:32;;;;;;;4.80;1.67;;;8.60;1.00;;;;;;5001249;28;20222;-79
2022/11/23 11:51:25;;;;;;;6.30;2.03;;;8.70;1.00;;;;;;5004607;28;20187;-78
2022/11/23 11:54:04;;;;;;;3.03;1.70;;;8.60;1.00;;;;;;5005088;28;20244;-78
2022/11/23 11:56:35;;;;;;;5.27;1.80;;;8.70;1.00;;;;;;5019602;28;20207;-77
2022/11/23 11:59:34;;;;;;;4.10;1.50;;;8.60;1.00;;;;;;5003057;28;20195;-80
2022/11/23 12:02:43;;;;;;;6.57;1.50;;;8.70;1.00;;;;;;5003350;28;20199;-77
2022/11/23 12:05:26;;;;;;;4.50;1.43;;;8.70;1.00;;;;;;4982287;28;20220;-80
2022/11/23 12:08:00;;;;;;;5.33;1.80;;;8.60;1.00;;;;;;5004968;28;20179;-79
2022/11/23 12:10:35;;;;;;;7.87;3.50;;;8.70;1.00;;;;;;5003567;28;20183;-80
2022/11/23 12:13:01;;;;;;;10.40;4.43;;;8.70;1.00;;;;;;5003764;28;20182;-77
2022/11/23 12:15:36;;;;;;;18.60;7.63;;;8.90;1.00;;;;;;5003854;28;20223;-79
2022/11/23 12:18:11;;;;;;;11.63;5.20;;;8.90;1.00;;;;;;5004775;28;20714;-80
2022/11/23 12:20:49;;;;;;;6.00;2.80;;;9.00;1.00;;;;;;5006413;28;20195;-76
2022/11/23 12:23:24;;;;;;;10.00;3.80;;;9.10;1.00;;;;;;5022378;28;20645;-78
2022/11/23 12:26:05;;;;;;;12.17;5.63;;;9.20;1.00;;;;;;5019693;28;20313;-78
2022/11/23 12:28:50;;;;;;;15.20;6.93;;;9.20;1.00;;;;;;5004324;28;20180;-82
2022/11/23 12:31:57;;;;;;;8.90;3.57;;;9.20;1.00;;;;;;5005623;28;20186;-77
2022/11/23 12:34:31;;;;;;;17.53;7.17;;;9.00;1.00;;;;;;5009526;28;20262;-78
2022/11/23 12:37:03;;;;;;;17.27;7.10;;;9.10;1.00;;;;;;4998158;28;21090;-79
2022/11/23 12:39:34;;;;;;;7.93;3.60;;;9.30;1.00;;;;;;5008949;28;20214;-79
2022/11/23 12:42:28;;;;;;;4.00;2.70;;;9.40;1.00;;;;;;5009373;28;20191;-79
2022/11/23 12:45:19;;;;;;;4.80;2.13;;;9.50;1.00;;;;;;5009413;28;20246;-79
2022/11/23 12:47:51;;;;;;;5.13;2.40;;;9.40;1.00;;;;;;5009435;28;20195;-79
2022/11/23 12:50:34;;;;;;;3.97;1.90;;;9.60;1.00;;;;;;5009881;28;20188;-79
2022/11/23 12:53:27;;;;;;;7.97;2.13;;;9.70;1.00;;;;;;5011405;28;20183;-79
2022/11/23 12:56:21;;;;;;;4.53;2.30;;;9.90;1.00;;;;;;5015641;28;20207;-77
2022/11/23 12:58:48;;;;;;;5.63;1.80;;;9.80;1.00;;;;;;5007526;28;20188;-79
2022/11/23 13:01:16;;;;;;;5.30;1.90;;;9.40;1.00;;;;;;5009942;28;20192;-80
2022/11/23 13:04:14;;;;;;;4.33;2.17;;;9.40;1.00;;;;;;5008613;28;20191;-79